Brevik Bridge — VRHY7 — position and weather

sailwx.info

Track history (hours):
 
Tides and Currents Weather Stations Pressure Air Temp Water Temp Dewpoint Dewpoint Depression Visibility Wind Speed Wind Dir Waves Ship Positions

Brevik Bridge

Last reported at 2016-Jul-25 20:28 UTC. Time now 2016-Jul-30 16:54 UTC.
Position N 01°49' E 102°31'.

Length 268 m; draft 12.3 m.

Type: Ship (hazmat cat D). MMSI: 477866200.

Date/timePositionNaut miles runAvg speedWind from/ knotsBaromVisibWave heightAir tempDewpointWater temp
2016-Jul-25 20:28N 01°49' E 102°31'1516.1
2016-Jul-25 19:33N 01°43' E 102°44'6314.7
2016-Jul-25 15:17N 01°12' E 103°39'810.4
2016-Jul-25 14:33N 01°17' E 103°45'1 1.3
2016-Jul-25 13:32N 01°17' E 103°46'0 0.1
2016-Jul-25 12:20N 01°17' E 103°46'0 0.1
2016-Jul-25 11:32N 01°17' E 103°46'0 0.0
2016-Jul-25 10:29N 01°17' E 103°46'0 0.1
2016-Jul-25 09:20N 01°17' E 103°46'0 0.0
2016-Jul-25 08:32N 01°17' E 103°46'0 0.0
2016-Jul-25 07:32N 01°17' E 103°46'0 0.1
2016-Jul-25 06:26N 01°17' E 103°46'0 0.1
2016-Jul-25 05:29N 01°17' E 103°46'0 0.1
2016-Jul-25 04:32N 01°17' E 103°46'0 0.0
2016-Jul-25 03:32N 01°17' E 103°46'0 0.0
2016-Jul-25 02:32N 01°17' E 103°46'0 0.0
2016-Jul-25 01:32N 01°17' E 103°46'0 0.0
2016-Jul-25 00:32N 01°17' E 103°46'0 0.0
2016-Jul-24 23:32N 01°17' E 103°46'1 1.1
2016-Jul-24 22:33N 01°17' E 103°45'1 0.6
2016-Jul-24 21:33N 01°17' E 103°44'6 5.8
2016-Jul-24 20:33N 01°13' E 103°48'8 8.4
2016-Jul-24 19:33N 01°15' E 103°57'  
2016-Jul-18 15:31N 22°20' E 119°34'1111.7
2016-Jul-18 14:33N 22°28' E 119°42'1211.9
2016-Jul-18 13:33N 22°37' E 119°50'1211.7
2016-Jul-18 12:33N 22°49' E 119°53'  
2016-Jul-15 23:08N 29°37' E 122°32'711.4
2016-Jul-15 22:33N 29°41' E 122°26'1111.1
2016-Jul-15 21:33N 29°47' E 122°16'1111.2
2016-Jul-15 20:33N 29°55' E 122°06'  
Track history (hours):
 
Tides and Currents Weather Stations Pressure Air Temp Water Temp Dewpoint Dewpoint Depression Visibility Wind Speed Wind Dir Waves Ship Positions

Brevik Bridge

Last reported at 2016-Jul-25 20:28 UTC. Time now 2016-Jul-30 16:54 UTC.
Position N 01°49' E 102°31'.

Length 268 m; draft 12.3 m.

Type: Ship (hazmat cat D). MMSI: 477866200.

Date/timePositionNaut miles runAvg speedWind from/ knotsBaromVisibWave heightAir tempDewpointWater temp
2016-Jul-25 20:28N 01°49' E 102°31'1516.1
2016-Jul-25 19:33N 01°43' E 102°44'6314.7
2016-Jul-25 15:17N 01°12' E 103°39'810.4
2016-Jul-25 14:33N 01°17' E 103°45'1 1.3
2016-Jul-25 13:32N 01°17' E 103°46'0 0.1
2016-Jul-25 12:20N 01°17' E 103°46'0 0.1
2016-Jul-25 11:32N 01°17' E 103°46'0 0.0
2016-Jul-25 10:29N 01°17' E 103°46'0 0.1
2016-Jul-25 09:20N 01°17' E 103°46'0 0.0
2016-Jul-25 08:32N 01°17' E 103°46'0 0.0
2016-Jul-25 07:32N 01°17' E 103°46'0 0.1
2016-Jul-25 06:26N 01°17' E 103°46'0 0.1
2016-Jul-25 05:29N 01°17' E 103°46'0 0.1
2016-Jul-25 04:32N 01°17' E 103°46'0 0.0
2016-Jul-25 03:32N 01°17' E 103°46'0 0.0
2016-Jul-25 02:32N 01°17' E 103°46'0 0.0
2016-Jul-25 01:32N 01°17' E 103°46'0 0.0
2016-Jul-25 00:32N 01°17' E 103°46'0 0.0
2016-Jul-24 23:32N 01°17' E 103°46'1 1.1
2016-Jul-24 22:33N 01°17' E 103°45'1 0.6
2016-Jul-24 21:33N 01°17' E 103°44'6 5.8
2016-Jul-24 20:33N 01°13' E 103°48'8 8.4
2016-Jul-24 19:33N 01°15' E 103°57'  
2016-Jul-18 15:31N 22°20' E 119°34'1111.7
2016-Jul-18 14:33N 22°28' E 119°42'1211.9
2016-Jul-18 13:33N 22°37' E 119°50'1211.7
2016-Jul-18 12:33N 22°49' E 119°53'  
2016-Jul-15 23:08N 29°37' E 122°32'711.4
2016-Jul-15 22:33N 29°41' E 122°26'1111.1
2016-Jul-15 21:33N 29°47' E 122°16'1111.2
2016-Jul-15 20:33N 29°55' E 122°06'  

Dump ship's entire track history